createdAt,value
2018-05-23T00:00:12.122Z,11.80
2018-05-23T00:02:39.740Z,10.63
2018-05-23T00:05:07.348Z,11.00
2018-05-23T00:07:34.943Z,10.90
2018-05-23T00:10:03.305Z,12.10
2018-05-23T00:12:30.929Z,12.43
2018-05-23T00:14:59.309Z,10.97
2018-05-23T00:17:26.931Z,11.00
2018-05-23T00:19:54.567Z,12.40
2018-05-23T00:22:22.234Z,12.87
2018-05-23T00:24:49.889Z,12.33
2018-05-23T00:27:17.488Z,14.20
2018-05-23T00:29:45.100Z,13.17
2018-05-23T00:32:12.790Z,12.63
2018-05-23T00:34:40.429Z,14.10
2018-05-23T00:37:08.793Z,12.87
2018-05-23T00:39:36.635Z,13.93
2018-05-23T00:42:04.242Z,12.67
2018-05-23T00:44:31.883Z,12.97
2018-05-23T00:46:59.553Z,14.23
2018-05-23T00:49:27.200Z,12.50
2018-05-23T00:51:54.839Z,14.07
2018-05-23T00:54:23.296Z,11.50
2018-05-23T00:56:50.906Z,14.93
2018-05-23T00:59:18.581Z,14.17
2018-05-23T01:01:46.185Z,13.17
2018-05-23T01:04:13.807Z,13.77
2018-05-23T01:06:42.173Z,13.17
2018-05-23T01:09:09.836Z,13.40
2018-05-23T01:11:37.703Z,13.20
2018-05-23T01:14:05.546Z,15.33
2018-05-23T01:16:33.156Z,13.93
2018-05-23T01:19:01.557Z,14.53
2018-05-23T01:21:29.170Z,14.23
2018-05-23T01:23:56.806Z,14.97
2018-05-23T01:26:24.423Z,14.00
2018-05-23T01:28:52.833Z,13.93
2018-05-23T01:31:21.188Z,13.23
2018-05-23T01:33:48.873Z,13.07
2018-05-23T01:36:16.481Z,14.00
2018-05-23T01:38:44.131Z,13.13
2018-05-23T01:41:11.768Z,13.20
2018-05-23T01:43:39.573Z,12.73
2018-05-23T01:46:07.995Z,14.53
2018-05-23T01:48:47.598Z,12.80
2018-05-23T01:51:15.199Z,12.67
2018-05-23T01:53:42.860Z,12.03
2018-05-23T01:56:10.857Z,12.63
2018-05-23T01:58:39.550Z,12.90
2018-05-23T02:01:08.015Z,13.20
2018-05-23T02:03:35.659Z,12.50
2018-05-23T02:06:03.350Z,12.90
2018-05-23T02:08:31.746Z,11.90
2018-05-23T02:11:04.668Z,12.93
2018-05-23T02:13:32.777Z,14.47
2018-05-23T02:16:01.513Z,11.77
2018-05-23T02:18:31.216Z,12.17
2018-05-23T02:21:01.027Z,12.40
2018-05-23T02:23:32.546Z,12.53
2018-05-23T02:26:03.722Z,11.70
2018-05-23T02:28:35.194Z,11.67
2018-05-23T02:31:19.398Z,11.93
2018-05-23T02:36:24.244Z,11.83
2018-05-23T02:38:56.677Z,11.77
2018-05-23T02:41:25.358Z,11.10
2018-05-23T02:43:55.837Z,12.57
2018-05-23T02:49:15.149Z,12.80
2018-05-23T02:53:20.802Z,14.27
2018-05-23T04:22:30.093Z,12.13
2018-05-23T04:24:59.052Z,12.93
2018-05-23T04:27:28.039Z,15.33
2018-05-23T04:29:56.440Z,13.47
2018-05-23T04:32:28.340Z,15.80
2018-05-23T04:34:57.727Z,12.53
2018-05-23T04:37:27.471Z,13.83
2018-05-23T04:40:14.716Z,14.57
2018-05-23T04:42:44.144Z,14.07
2018-05-23T04:45:11.741Z,13.87
2018-05-23T04:47:39.599Z,12.90
2018-05-23T04:50:07.312Z,14.47
2018-05-23T04:52:35.953Z,13.03
2018-05-23T04:55:03.747Z,12.97
2018-05-23T04:57:32.239Z,14.00
2018-05-23T05:00:01.616Z,13.80
2018-05-23T05:02:31.198Z,13.40
2018-05-23T05:05:02.314Z,13.63
2018-05-23T05:07:32.284Z,13.87
2018-05-23T05:10:00.533Z,15.67
2018-05-23T05:12:32.915Z,13.37
2018-05-23T05:15:02.458Z,13.43
2018-05-23T05:17:31.573Z,12.27
2018-05-23T05:19:59.305Z,12.80
2018-05-23T05:22:30.479Z,13.13
2018-05-23T05:24:58.302Z,12.17
2018-05-23T05:27:28.548Z,13.30
2018-05-23T05:30:02.173Z,13.60
2018-05-23T05:32:30.718Z,14.40
2018-05-23T05:34:59.226Z,13.50
2018-05-23T05:37:28.530Z,12.97
2018-05-23T05:39:57.972Z,14.03
2018-05-23T05:42:29.499Z,14.13
2018-05-23T05:45:00.076Z,14.63
2018-05-23T05:47:30.065Z,14.43
2018-05-23T05:50:00.367Z,15.00
2018-05-23T05:52:32.159Z,14.77
2018-05-23T05:55:07.664Z,15.67
2018-05-23T05:57:36.471Z,13.83
2018-05-23T06:00:05.268Z,15.53
2018-05-23T06:02:32.835Z,14.80
2018-05-23T06:05:01.566Z,13.90
2018-05-23T06:07:29.340Z,13.03
2018-05-23T06:09:59.935Z,14.93
2018-05-23T06:12:29.654Z,14.37
2018-05-23T06:14:59.339Z,14.67
2018-05-23T06:17:29.538Z,15.87
2018-05-23T06:19:58.588Z,15.77
2018-05-23T06:22:34.937Z,15.00
2018-05-23T06:25:03.915Z,13.13
2018-05-23T06:27:33.373Z,15.83
2018-05-23T06:30:02.650Z,14.33
2018-05-23T06:32:30.521Z,15.57
2018-05-23T06:35:01.562Z,15.13
2018-05-23T06:37:31.378Z,16.47
2018-05-23T06:39:59.845Z,18.57
2018-05-23T06:42:28.696Z,15.00
2018-05-23T06:44:59.113Z,14.47
2018-05-23T06:47:32.385Z,13.70
2018-05-23T06:50:00.287Z,13.83
2018-05-23T06:52:30.742Z,16.23
2018-05-23T06:55:01.896Z,14.30
2018-05-23T06:57:32.708Z,13.30
2018-05-23T07:00:05.625Z,14.30
2018-05-23T07:02:35.481Z,14.10
2018-05-23T07:05:03.171Z,13.73
2018-05-23T07:07:32.683Z,15.10
2018-05-23T07:10:01.873Z,12.67
2018-05-23T07:12:29.551Z,15.70
2018-05-23T07:14:57.603Z,12.40
2018-05-23T07:17:28.149Z,13.00
2018-05-23T07:19:57.547Z,12.77
2018-05-23T07:22:28.033Z,13.90
2018-05-23T07:28:08.473Z,12.50
2018-05-23T07:30:41.861Z,10.47
2018-05-23T07:33:15.251Z,10.57
2018-05-23T07:36:03.719Z,11.17
2018-05-23T07:38:32.552Z,10.70
2018-05-23T07:41:19.700Z,9.40
2018-05-23T07:43:47.421Z,10.57
2018-05-23T07:46:15.071Z,9.13
2018-05-23T07:48:44.167Z,8.93
2018-05-23T07:51:11.982Z,10.93
2018-05-23T07:53:40.665Z,9.87
2018-05-23T07:56:09.712Z,9.90
2018-05-23T07:58:37.516Z,10.97
2018-05-23T08:01:05.150Z,10.20
2018-05-23T08:03:32.821Z,9.97
2018-05-23T08:06:01.319Z,10.67
2018-05-23T08:08:32.177Z,9.97
2018-05-23T08:11:00.813Z,10.63
2018-05-23T08:13:32.213Z,12.10
2018-05-23T08:19:12.205Z,11.63
2018-05-23T08:21:43.464Z,11.30
2018-05-23T08:27:09.096Z,9.83
2018-05-23T08:29:39.541Z,11.50
2018-05-23T08:32:09.596Z,11.30
2018-05-23T08:34:38.691Z,11.13
2018-05-23T08:37:06.814Z,11.03
2018-05-23T08:39:35.350Z,11.20
2018-05-23T08:42:04.437Z,12.53
2018-05-23T08:44:32.882Z,11.77
2018-05-23T08:47:01.721Z,11.70
2018-05-23T08:49:31.377Z,12.53
2018-05-23T08:52:01.869Z,13.13
2018-05-23T08:54:35.731Z,13.93
2018-05-23T08:57:03.482Z,12.67
2018-05-23T08:59:31.102Z,11.63
2018-05-23T09:01:58.899Z,11.43
2018-05-23T09:04:27.977Z,11.60
2018-05-23T09:07:14.140Z,11.50
2018-05-23T09:09:43.101Z,11.03
2018-05-23T09:12:11.957Z,11.50
2018-05-23T09:14:44.052Z,11.73
2018-05-23T09:17:13.663Z,11.23
2018-05-23T09:19:41.851Z,11.73
2018-05-23T09:22:09.799Z,11.53
2018-05-23T09:24:37.752Z,11.80
2018-05-23T09:27:06.355Z,12.37
2018-05-23T09:29:34.018Z,13.83
2018-05-23T09:32:01.684Z,12.67
2018-05-23T09:34:29.396Z,12.83
2018-05-23T09:39:33.479Z,12.37
2018-05-23T09:42:02.060Z,12.00
2018-05-23T09:44:29.745Z,12.60
2018-05-23T09:46:58.401Z,12.73
2018-05-23T09:49:29.652Z,12.90
2018-05-23T09:52:05.238Z,12.00
2018-05-23T09:54:32.913Z,17.00
2018-05-23T09:57:01.651Z,11.83
2018-05-23T09:59:29.555Z,12.10
2018-05-23T10:02:16.949Z,12.53
2018-05-23T10:10:15.090Z,12.80
2018-05-23T10:13:10.913Z,12.30
2018-05-23T10:15:46.659Z,12.93
2018-05-23T10:18:38.479Z,13.33
2018-05-23T10:21:06.400Z,12.60
2018-05-23T10:23:35.249Z,13.37
2018-05-23T10:26:05.514Z,12.90
2018-05-23T10:28:37.639Z,13.70
2018-05-23T10:31:06.060Z,12.60
2018-05-23T10:33:35.235Z,13.97
2018-05-23T10:36:02.933Z,15.20
2018-05-23T10:38:30.777Z,12.33
2018-05-23T10:40:58.398Z,16.70
2018-05-23T10:43:28.244Z,13.40
2018-05-23T10:45:57.472Z,12.77
2018-05-23T10:48:27.910Z,13.13
2018-05-23T10:51:00.062Z,13.10
2018-05-23T10:53:29.303Z,12.47
2018-05-23T10:55:58.404Z,11.70
2018-05-23T10:58:27.868Z,12.13
2018-05-23T11:00:57.991Z,11.40
2018-05-23T11:03:32.754Z,10.97
2018-05-23T11:06:04.340Z,12.53
2018-05-23T11:08:35.173Z,10.23
2018-05-23T11:11:04.631Z,10.70
2018-05-23T11:13:32.609Z,11.10
2018-05-23T11:16:00.233Z,10.33
2018-05-23T11:21:09.607Z,11.17
2018-05-23T11:23:37.362Z,11.30
2018-05-23T11:26:05.032Z,9.63
2018-05-23T11:28:33.839Z,10.10
2018-05-23T11:31:01.534Z,9.63
2018-05-23T11:33:30.204Z,9.30
2018-05-23T11:36:01.407Z,9.87
2018-05-23T11:38:30.245Z,9.07
2018-05-23T11:41:00.034Z,8.43
2018-05-23T11:43:28.488Z,9.87
2018-05-23T11:45:58.022Z,7.63
2018-05-23T11:48:27.508Z,6.17
2018-05-23T11:50:57.300Z,6.83
2018-05-23T11:53:27.666Z,6.23
2018-05-23T11:56:03.241Z,7.43
2018-05-23T11:58:34.379Z,7.50
2018-05-23T12:01:06.179Z,7.93
2018-05-23T12:03:35.685Z,9.80
2018-05-23T12:06:12.658Z,8.80
2018-05-23T12:08:44.378Z,9.10
2018-05-23T12:11:13.027Z,6.67
2018-05-23T12:13:45.859Z,6.80
2018-05-23T12:16:15.466Z,11.63
2018-05-23T12:18:44.968Z,7.53
2018-05-23T12:21:12.590Z,7.43
2018-05-23T12:23:40.312Z,6.73
2018-05-23T12:26:09.448Z,7.50
2018-05-23T12:32:01.373Z,6.23
2018-05-23T12:34:28.989Z,7.17
2018-05-23T12:36:59.639Z,8.10
2018-05-23T12:39:27.391Z,7.13
2018-05-23T12:41:55.785Z,6.10
2018-05-23T12:44:23.441Z,9.17
2018-05-23T12:46:52.103Z,5.93
2018-05-23T12:49:23.114Z,6.13
2018-05-23T12:51:53.506Z,6.90
2018-05-23T12:54:24.252Z,5.50
2018-05-23T12:56:54.709Z,6.27
2018-05-23T12:59:25.226Z,8.57
2018-05-23T13:01:53.946Z,7.70
2018-05-23T13:04:23.865Z,7.60
2018-05-23T13:06:54.434Z,7.63
2018-05-23T13:09:23.079Z,7.07
2018-05-23T13:11:52.430Z,8.97
2018-05-23T13:14:20.229Z,6.47
2018-05-23T13:16:47.918Z,7.60
2018-05-23T13:19:16.576Z,8.20
2018-05-23T13:21:44.234Z,5.97
2018-05-23T13:24:12.129Z,8.17
2018-05-23T13:26:39.901Z,6.80
2018-05-23T13:29:07.527Z,5.73
2018-05-23T13:31:35.126Z,8.83
2018-05-23T13:34:03.845Z,5.03
2018-05-23T13:36:32.350Z,6.60
2018-05-23T13:39:00.350Z,5.00
2018-05-23T13:41:27.975Z,18.47
2018-05-23T13:43:56.381Z,14.03
2018-05-23T13:46:25.404Z,10.93
2018-05-23T13:48:53.751Z,8.53
2018-05-23T13:51:21.701Z,13.80
2018-05-23T13:53:49.327Z,11.53
2018-05-23T13:56:16.940Z,11.93
2018-05-23T13:58:44.681Z,12.00
2018-05-23T14:01:12.304Z,8.50
2018-05-23T14:03:39.929Z,10.17
2018-05-23T14:06:07.534Z,9.20
2018-05-23T14:08:36.104Z,7.03
2018-05-23T14:11:03.767Z,7.83
2018-05-23T14:13:31.424Z,4.30
2018-05-23T14:15:59.104Z,4.60
2018-05-23T14:18:27.312Z,5.03
2018-05-23T14:20:54.926Z,6.70
2018-05-23T14:26:20.095Z,5.67
2018-05-23T14:28:47.727Z,4.50
2018-05-23T14:31:15.342Z,5.03
2018-05-23T14:33:42.941Z,4.33
2018-05-23T14:36:10.550Z,4.23
2018-05-23T14:38:38.660Z,4.07
2018-05-23T14:41:06.522Z,5.17
2018-05-23T14:43:34.361Z,3.90
2018-05-23T14:46:03.159Z,4.10
2018-05-23T14:48:33.665Z,4.30
2018-05-23T14:51:01.315Z,4.10
2018-05-23T14:53:32.517Z,6.43
2018-05-23T14:56:00.282Z,4.97
2018-05-23T14:58:32.697Z,3.93
2018-05-23T15:01:00.421Z,5.03
2018-05-23T15:03:28.895Z,5.33
2018-05-23T15:06:05.970Z,4.23
2018-05-23T15:08:37.008Z,4.57
2018-05-23T15:11:06.657Z,5.13
2018-05-23T15:13:34.507Z,5.80
2018-05-23T15:16:02.161Z,7.73
2018-05-23T15:18:30.917Z,6.70
2018-05-23T15:20:59.323Z,7.53
2018-05-23T15:23:27.442Z,4.27
2018-05-23T15:25:57.962Z,7.67
2018-05-23T15:28:27.100Z,5.60
2018-05-23T15:30:58.734Z,4.53
2018-05-23T15:33:32.238Z,5.00
2018-05-23T15:36:08.558Z,6.80
2018-05-23T15:38:37.910Z,7.53
2018-05-23T15:41:06.440Z,4.03
2018-05-23T15:43:34.123Z,10.43
2018-05-23T15:46:01.759Z,7.93
2018-05-23T15:48:30.241Z,9.83
2018-05-23T15:50:59.323Z,6.47
2018-05-23T15:53:26.995Z,43.27
2018-05-23T15:55:56.111Z,7.30
2018-05-23T15:58:30.791Z,11.53
2018-05-23T16:01:01.009Z,8.03
2018-05-23T16:03:29.318Z,10.83
2018-05-23T16:05:59.060Z,6.63
2018-05-23T16:08:26.723Z,12.57
2018-05-23T16:10:54.503Z,16.20
2018-05-23T16:13:25.959Z,9.07
2018-05-23T16:15:59.137Z,5.33
2018-05-23T16:18:28.417Z,5.37
2018-05-23T16:20:56.922Z,5.63
2018-05-23T16:23:26.692Z,8.50
2018-05-23T16:25:55.142Z,7.57
2018-05-23T16:28:25.721Z,11.33
2018-05-23T16:30:56.754Z,11.80
2018-05-23T16:33:28.920Z,7.50
2018-05-23T16:35:59.206Z,4.90
2018-05-23T16:38:27.257Z,4.90
2018-05-23T16:40:57.394Z,5.73
2018-05-23T16:43:26.868Z,5.90
2018-05-23T16:46:02.082Z,7.33
2018-05-23T16:48:29.922Z,5.20
2018-05-23T16:50:58.334Z,5.07
2018-05-23T16:53:33.222Z,5.10
2018-05-23T16:56:01.051Z,5.10
2018-05-23T16:58:29.545Z,7.87
2018-05-23T17:00:57.337Z,5.00
2018-05-23T17:03:25.797Z,5.37
2018-05-23T17:05:56.103Z,7.00
2018-05-23T17:08:25.713Z,6.00
2018-05-23T17:11:00.205Z,7.33
2018-05-23T17:13:30.235Z,6.27
2018-05-23T17:16:07.486Z,20.20
2018-05-23T17:18:35.218Z,7.20
2018-05-23T17:21:03.863Z,4.77
2018-05-23T17:23:36.922Z,5.73
2018-05-23T17:26:04.589Z,5.93
2018-05-23T17:28:34.240Z,5.53
2018-05-23T17:31:03.099Z,4.77
2018-05-23T17:33:31.485Z,5.60
2018-05-23T17:36:00.246Z,4.23
2018-05-23T17:38:29.019Z,6.13
2018-05-23T17:40:57.722Z,5.33
2018-05-23T17:43:25.698Z,7.23
2018-05-23T17:45:55.319Z,6.90
2018-05-23T17:48:27.457Z,7.27
2018-05-23T17:51:05.372Z,4.93
2018-05-23T17:54:00.492Z,7.53
2018-05-23T17:56:30.512Z,6.40
2018-05-23T17:58:58.405Z,6.23
2018-05-23T18:01:30.115Z,5.87
2018-05-23T18:03:59.619Z,5.70
2018-05-23T18:06:33.988Z,4.30
2018-05-23T18:09:01.645Z,7.93
2018-05-23T18:11:29.229Z,7.97
2018-05-23T18:13:57.564Z,6.40
2018-05-23T18:16:30.526Z,7.03
2018-05-23T18:19:04.110Z,6.23
2018-05-23T18:21:31.697Z,4.80
2018-05-23T18:24:00.799Z,4.97
2018-05-23T18:26:29.362Z,6.10
2018-05-23T18:29:07.824Z,6.60
2018-05-23T18:31:39.484Z,5.00
2018-05-23T18:34:10.061Z,6.27
2018-05-23T18:36:37.929Z,7.40
2018-05-23T18:39:07.717Z,5.07
2018-05-23T18:41:41.564Z,5.67
2018-05-23T18:44:10.043Z,5.73
2018-05-23T18:46:37.814Z,4.23
2018-05-23T18:49:06.225Z,5.23
2018-05-23T18:51:34.894Z,6.77
2018-05-23T18:54:03.489Z,5.63
2018-05-23T18:56:31.818Z,4.23
2018-05-23T18:59:01.286Z,5.73
2018-05-23T19:01:28.881Z,7.07
2018-05-23T19:03:59.682Z,4.40
2018-05-23T19:06:29.382Z,4.40
2018-05-23T19:08:57.294Z,5.77
2018-05-23T19:11:27.848Z,5.03
2018-05-23T19:13:55.551Z,5.57
2018-05-23T19:16:23.859Z,7.13
2018-05-23T19:18:51.483Z,4.63
2018-05-23T19:24:30.592Z,4.53
2018-05-23T19:27:02.743Z,6.07
2018-05-23T19:29:31.478Z,8.53
2018-05-23T19:32:00.017Z,8.90
2018-05-23T19:34:28.580Z,5.20
2018-05-23T19:36:57.251Z,5.63
2018-05-23T19:39:27.894Z,4.27
2018-05-23T19:41:57.065Z,5.50
2018-05-23T19:44:29.196Z,4.17
2018-05-23T19:46:57.391Z,8.50
2018-05-23T19:49:29.790Z,5.90
2018-05-23T19:51:58.304Z,4.47
2018-05-23T19:54:26.951Z,4.70
2018-05-23T19:56:55.795Z,7.43
2018-05-23T19:59:26.783Z,5.57
2018-05-23T20:02:00.136Z,4.47
2018-05-23T20:04:28.486Z,4.57
2018-05-23T20:06:56.184Z,5.17
2018-05-23T20:09:24.847Z,4.30
2018-05-23T20:11:56.000Z,4.67
2018-05-23T20:14:31.031Z,8.33
2018-05-23T20:17:00.731Z,5.37
2018-05-23T20:19:29.595Z,4.97
2018-05-23T20:22:01.519Z,4.23
2018-05-23T20:24:32.292Z,4.77
2018-05-23T20:27:01.758Z,4.37
2018-05-23T20:29:30.211Z,4.40
2018-05-23T20:31:59.610Z,4.27
2018-05-23T20:34:28.659Z,3.90
2018-05-23T20:36:56.845Z,5.70
2018-05-23T20:39:26.602Z,3.83
2018-05-23T20:41:54.218Z,5.43
2018-05-23T20:44:24.605Z,4.87
2018-05-23T20:46:52.516Z,4.30
2018-05-23T20:49:21.391Z,4.77
2018-05-23T20:51:52.151Z,4.67
2018-05-23T20:54:20.027Z,4.20
2018-05-23T20:56:47.749Z,4.83
2018-05-23T20:59:15.381Z,4.00
2018-05-23T21:01:43.002Z,8.30
2018-05-23T21:04:11.332Z,4.30
2018-05-23T21:09:14.169Z,3.90
2018-05-23T21:11:41.788Z,5.53
2018-05-23T21:14:09.544Z,5.40
2018-05-23T21:16:38.101Z,4.30
2018-05-23T21:19:07.790Z,5.10
2018-05-23T21:21:36.752Z,5.30
2018-05-23T21:24:06.575Z,5.17
2018-05-23T21:26:34.871Z,4.20
2018-05-23T21:29:02.550Z,4.73
2018-05-23T21:31:30.958Z,5.17
2018-05-23T21:33:59.469Z,3.97
2018-05-23T21:36:28.627Z,5.13
2018-05-23T21:38:56.295Z,5.37
2018-05-23T21:41:25.811Z,5.60
2018-05-23T21:43:55.038Z,5.07
2018-05-23T21:46:23.808Z,6.60
2018-05-23T21:48:51.488Z,6.70
2018-05-23T21:51:19.090Z,4.13
2018-05-23T21:53:47.387Z,4.80
2018-05-23T21:56:19.535Z,5.00
2018-05-23T21:58:47.821Z,3.67
2018-05-23T22:01:16.154Z,4.87
2018-05-23T22:03:44.986Z,4.23
2018-05-23T22:06:12.639Z,4.43
2018-05-23T22:08:40.242Z,4.93
2018-05-23T22:11:09.877Z,5.10
2018-05-23T22:13:38.407Z,3.67
2018-05-23T22:16:07.596Z,4.90
2018-05-23T22:18:35.269Z,3.70
2018-05-23T22:21:03.027Z,3.77
2018-05-23T22:23:31.098Z,3.80
2018-05-23T22:26:00.357Z,3.70
2018-05-23T22:28:29.434Z,7.47
2018-05-23T22:30:57.137Z,3.77
2018-05-23T22:33:36.210Z,4.43
2018-05-23T22:36:05.395Z,5.27
2018-05-23T22:38:33.117Z,3.87
2018-05-23T22:41:00.775Z,5.50
2018-05-23T22:43:30.174Z,4.07
2018-05-23T22:45:57.813Z,3.50
2018-05-23T22:48:26.965Z,4.00
2018-05-23T22:50:55.435Z,4.80
2018-05-23T22:53:24.475Z,3.43
2018-05-23T22:55:57.180Z,6.33
2018-05-23T22:58:28.753Z,5.33
2018-05-23T23:00:57.977Z,3.90
2018-05-23T23:03:27.764Z,4.90
2018-05-23T23:05:56.051Z,5.23
2018-05-23T23:08:29.750Z,3.73
2018-05-23T23:10:58.171Z,3.37
2018-05-23T23:13:27.178Z,4.37
2018-05-23T23:15:55.680Z,3.83
2018-05-23T23:18:23.265Z,4.70
2018-05-23T23:20:50.877Z,4.73
2018-05-23T23:23:18.461Z,4.20
2018-05-23T23:25:46.830Z,3.33
2018-05-23T23:28:15.221Z,2.80
2018-05-23T23:30:43.604Z,4.83
2018-05-23T23:33:11.248Z,3.97
2018-05-23T23:35:38.981Z,5.20
2018-05-23T23:38:07.351Z,5.07
2018-05-23T23:40:34.951Z,4.47
2018-05-23T23:43:02.558Z,6.17
2018-05-23T23:45:30.940Z,3.30
2018-05-23T23:47:58.539Z,3.60
2018-05-23T23:50:26.957Z,3.23
2018-05-23T23:52:55.328Z,5.63
2018-05-23T23:55:22.959Z,3.07
2018-05-23T23:57:50.560Z,3.50
